Time;durP1;ratioP1;P1;durP2;ratioP2;P2;SDS_P1;SDS_P2;PMS_P1;PMS_P2;Temp;Humidity;BMP_temperature;BMP_pressure;BME280_temperature;BME280_humidity;BME280_pressure;Samples;Min_cycle;Max_cycle;Signal;HPM_P1;HPM_P2
2024/04/08 00:01:45;;;;;;;6.97;4.00;;;;;;;16.78;78.01;100695.34;8381061;28;20090;-77
2024/04/08 00:05:45;;;;;;;10.65;4.10;;;;;;;16.53;80.35;100740.41;8380823;28;20044;-77
2024/04/08 00:09:46;;;;;;;8.55;3.40;;;;;;;17.06;76.81;100730.13;8380299;28;20500;-77
2024/04/08 00:13:47;;;;;;;5.75;3.55;;;;;;;17.14;78.76;100735.25;8380874;28;20094;-77
2024/04/08 00:17:48;;;;;;;4.82;3.20;;;;;;;16.87;81.98;100721.09;8361090;28;20052;-77
2024/04/08 00:21:48;;;;;;;6.30;3.20;;;;;;;16.73;81.80;100713.28;8348269;28;20104;-77
2024/04/08 00:25:49;;;;;;;9.07;3.22;;;;;;;16.46;85.23;100716.09;8349471;28;20045;-78
2024/04/08 00:29:50;;;;;;;7.28;3.72;;;;;;;16.37;85.25;100721.97;8360345;28;20048;-77
2024/04/08 00:33:51;;;;;;;8.98;3.38;;;;;;;16.63;85.80;100716.41;8386137;28;20148;-77
2024/04/08 00:37:52;;;;;;;4.95;3.00;;;;;;;16.69;83.24;100725.59;8387832;28;20105;-77
2024/04/08 00:41:52;;;;;;;5.85;3.22;;;;;;;16.64;84.23;100739.72;8378500;28;20083;-78
2024/04/08 00:45:53;;;;;;;7.40;3.45;;;;;;;16.54;85.09;100734.78;8363385;28;20060;-78
2024/04/08 00:49:54;;;;;;;5.57;3.72;;;;;;;16.55;83.69;100701.28;8380518;28;20102;-78
2024/04/08 00:53:54;;;;;;;7.53;3.67;;;;;;;16.41;85.06;100699.69;8378491;28;20527;-77
2024/04/08 00:57:56;;;;;;;6.07;3.15;;;;;;;16.24;88.10;100739.06;8379730;28;20581;-78
2024/04/08 01:01:57;;;;;;;9.13;3.30;;;;;;;16.24;87.75;100739.91;8377494;28;20135;-78
2024/04/08 01:05:58;;;;;;;7.68;3.42;;;;;;;16.61;82.98;100698.75;8379470;28;20499;-78
2024/04/08 01:09:59;;;;;;;7.75;3.83;;;;;;;16.40;85.26;100648.53;8379480;28;20131;-78
2024/04/08 01:14:00;;;;;;;10.35;3.80;;;;;;;16.56;82.55;100613.69;8382051;28;20049;-78
2024/04/08 01:18:00;;;;;;;11.32;3.80;;;;;;;16.49;82.73;100588.59;8365685;28;20060;-78
2024/04/08 01:22:01;;;;;;;8.77;3.47;;;;;;;16.40;83.93;100579.06;8351181;28;20421;-78
2024/04/08 01:26:01;;;;;;;7.57;3.17;;;;;;;16.93;77.61;100573.25;8346049;28;20060;-78
2024/04/08 01:30:02;;;;;;;11.65;3.35;;;;;;;16.82;76.41;100574.78;8333155;28;20130;-78
2024/04/08 01:34:03;;;;;;;10.13;3.30;;;;;;;16.80;75.22;100597.72;8361075;28;20053;-78
2024/04/08 01:38:04;;;;;;;10.43;3.30;;;;;;;17.02;74.27;100636.88;8373192;28;20163;-78
2024/04/08 01:42:04;;;;;;;9.32;3.10;;;;;;;16.63;78.07;100700.19;8394720;28;20419;-78
2024/04/08 01:46:06;;;;;;;7.05;2.90;;;;;;;16.58;77.33;100687.31;8392196;28;20077;-78
2024/04/08 01:50:06;;;;;;;9.05;3.35;;;;;;;16.44;79.87;100674.91;8385528;28;20128;-78
2024/04/08 01:54:12;;;;;;;5.75;2.95;;;;;;;16.83;76.66;100660.34;8383809;28;20462;-78
2024/04/08 01:58:12;;;;;;;8.82;3.30;;;;;;;16.53;78.65;100670.94;8385645;28;20139;-78
2024/04/08 02:02:13;;;;;;;8.07;3.20;;;;;;;16.54;80.13;100682.56;8384329;28;20458;-78
2024/04/08 02:06:14;;;;;;;7.13;3.22;;;;;;;16.82;76.60;100664.06;8384148;28;20526;-78
2024/04/08 02:10:14;;;;;;;6.72;3.40;;;;;;;16.91;76.74;100664.66;8363950;28;20055;-78
2024/04/08 02:14:15;;;;;;;8.23;3.35;;;;;;;16.83;80.28;100660.34;8385560;28;20050;-78
2024/04/08 02:18:16;;;;;;;6.95;3.10;;;;;;;16.75;81.83;100641.66;8384195;28;20052;-78
2024/04/08 02:22:16;;;;;;;10.55;2.83;;;;;;;16.64;83.55;100639.63;8385170;28;20425;-78
2024/04/08 02:26:18;;;;;;;8.40;3.38;;;;;;;16.54;84.81;100636.59;8383805;28;20091;-78
2024/04/08 02:30:18;;;;;;;4.18;2.65;;;;;;;16.64;84.73;100634.22;8384858;28;20556;-77
2024/04/08 02:34:19;;;;;;;4.35;3.17;;;;;;;16.76;84.68;100628.97;8384250;28;20067;-78
2024/04/08 02:38:21;;;;;;;5.45;3.00;;;;;;;17.15;81.19;100630.50;8369077;28;20052;-77
2024/04/08 02:42:22;;;;;;;6.80;3.05;;;;;;;16.85;83.83;100622.25;8377692;28;20119;-77
2024/04/08 02:46:22;;;;;;;9.93;3.80;;;;;;;16.47;87.08;100608.75;8380904;28;20056;-77
2024/04/08 02:50:23;;;;;;;5.68;3.08;;;;;;;15.90;91.27;100591.63;8383294;28;20420;-77
2024/04/08 02:54:23;;;;;;;8.30;3.80;;;;;;;16.08;90.25;100604.44;8380525;28;20522;-77
2024/04/08 02:58:24;;;;;;;8.65;3.80;;;;;;;16.35;88.82;100599.72;8385424;28;20059;-77
2024/04/08 03:02:25;;;;;;;11.18;3.45;;;;;;;16.51;86.04;100599.19;8381955;28;20139;-77
2024/04/08 03:06:28;;;;;;;9.52;3.30;;;;;;;15.79;91.73;100593.13;8384709;28;20451;-77
2024/04/08 03:10:29;;;;;;;8.75;3.28;;;;;;;16.16;89.01;100596.09;8367824;28;20183;-77
2024/04/08 03:14:30;;;;;;;9.13;3.60;;;;;;;15.99;91.47;100590.34;8335682;28;20084;-77
2024/04/08 03:18:30;;;;;;;5.50;3.30;;;;;;;16.49;81.66;100594.00;8378564;28;20082;-77
2024/04/08 03:22:31;;;;;;;9.70;3.63;;;;;;;16.24;81.91;100591.22;8385724;28;20059;-77
2024/04/08 03:26:32;;;;;;;4.43;3.20;;;;;;;16.15;86.39;100595.25;8383898;28;20098;-77
2024/04/08 03:30:35;;;;;;;7.05;3.55;;;;;;;16.32;85.74;100592.03;8347586;28;20550;-77
2024/04/08 03:34:35;;;;;;;8.65;4.10;;;;;;;15.95;86.42;100594.50;8368253;28;20096;-77
2024/04/08 03:38:36;;;;;;;5.95;3.22;;;;;;;16.07;86.83;100600.91;8357265;28;20084;-77
2024/04/08 03:42:37;;;;;;;7.63;3.70;;;;;;;16.47;82.91;100608.75;8384957;28;20145;-77
2024/04/08 03:46:37;;;;;;;6.30;3.75;;;;;;;16.11;85.27;100599.41;8382695;28;20109;-77
2024/04/08 03:50:38;;;;;;;7.25;3.47;;;;;;;16.10;85.67;100588.81;8381840;28;20053;-77
2024/04/08 03:54:38;;;;;;;5.45;3.65;;;;;;;16.50;81.84;100592.13;8383840;28;20075;-77
2024/04/08 03:58:41;;;;;;;4.57;3.17;;;;;;;16.21;82.34;100593.56;8382300;28;20056;-77
2024/04/08 04:02:41;;;;;;;8.38;3.50;;;;;;;16.19;84.18;100599.19;8360745;28;20140;-77
2024/04/08 04:06:42;;;;;;;7.50;3.70;;;;;;;15.81;87.12;100585.66;8381343;28;20056;-77
2024/04/08 04:10:44;;;;;;;7.40;3.53;;;;;;;15.78;88.82;100577.97;8380907;28;20052;-78
2024/04/08 04:14:44;;;;;;;7.20;3.72;;;;;;;15.89;89.33;100576.47;8380518;28;20135;-79
2024/04/08 04:18:45;;;;;;;7.85;3.95;;;;;;;16.09;87.43;100570.94;8363960;28;20052;-78
2024/04/08 04:22:46;;;;;;;8.68;3.80;;;;;;;16.44;84.54;100565.94;8363234;28;20165;-78
2024/04/08 04:26:47;;;;;;;7.57;3.72;;;;;;;16.03;87.27;100552.91;8379958;28;20135;-77
2024/04/08 04:30:57;;;;;;;9.57;4.18;;;;;;;15.78;86.64;100550.94;8380652;28;20094;-77
2024/04/08 04:34:58;;;;;;;7.47;3.45;;;;;;;15.93;87.07;100547.97;8379786;28;20139;-76
2024/04/08 04:38:59;;;;;;;5.93;3.67;;;;;;;15.61;87.95;100552.50;8367648;28;20446;-76
2024/04/08 04:42:59;;;;;;;5.60;3.65;;;;;;;15.74;87.21;100565.94;8379848;28;20057;-76
2024/04/08 04:47:03;;;;;;;6.57;3.45;;;;;;;15.72;85.99;100565.34;8379118;28;20061;-77
2024/04/08 04:51:04;;;;;;;6.68;4.03;;;;;;;15.93;85.10;100570.41;8379145;28;20127;-76
2024/04/08 04:55:05;;;;;;;7.38;3.95;;;;;;;16.00;87.66;100561.47;8379652;28;20214;-76
2024/04/08 04:59:06;;;;;;;10.07;4.03;;;;;;;15.95;87.61;100549.41;8380912;28;20123;-79
2024/04/08 05:03:07;;;;;;;9.75;4.13;;;;;;;15.77;88.95;100559.28;8387293;28;20439;-78
2024/04/08 05:07:07;;;;;;;9.63;3.97;;;;;;;15.44;93.34;100560.22;8384223;28;20048;-78
2024/04/08 05:11:08;;;;;;;9.18;3.60;;;;;;;15.60;89.90;100567.03;8385228;28;20041;-78
2024/04/08 05:15:09;;;;;;;11.35;4.40;;;;;;;15.67;89.08;100575.97;8387810;28;20052;-79
2024/04/08 05:19:09;;;;;;;10.43;4.32;;;;;;;16.05;84.15;100581.38;8388518;28;20127;-79
2024/04/08 05:23:13;;;;;;;8.98;4.40;;;;;;;15.80;85.93;100586.72;8389412;28;20052;-79
2024/04/08 05:27:14;;;;;;;11.43;4.22;;;;;;;15.81;86.57;100591.06;8390512;28;20072;-79
2024/04/08 05:31:14;;;;;;;9.57;4.55;;;;;;;16.08;86.32;100599.84;8391228;28;20110;-79
2024/04/08 05:35:15;;;;;;;10.65;3.80;;;;;;;16.59;84.12;100604.31;8373520;28;20676;-78
2024/04/08 05:39:15;;;;;;;12.32;4.75;;;;;;;16.51;83.37;100602.72;8381777;28;20052;-78
2024/04/08 05:43:16;;;;;;;9.52;4.60;;;;;;;16.49;83.77;100614.78;8389171;28;20107;-78
2024/04/08 05:47:17;;;;;;;10.32;4.00;;;;;;;16.60;83.51;100630.31;8388738;28;20052;-78
2024/04/08 05:51:18;;;;;;;8.60;4.00;;;;;;;15.88;88.28;100642.34;8385465;28;20149;-77
2024/04/08 05:55:19;;;;;;;11.25;4.65;;;;;;;16.06;86.97;100647.88;8386504;28;20053;-78
2024/04/08 05:59:20;;;;;;;10.73;4.07;;;;;;;16.22;85.94;100658.19;8372161;28;20091;-79
2024/04/08 06:03:22;;;;;;;9.02;4.50;;;;;;;16.65;83.66;100656.69;8389527;28;20522;-79
2024/04/08 06:07:24;;;;;;;10.40;4.20;;;;;;;16.80;83.10;100639.13;8383143;28;20131;-77
2024/04/08 06:11:25;;;;;;;12.48;4.03;;;;;;;16.71;83.34;100645.88;8378218;28;20191;-78
2024/04/08 06:15:26;;;;;;;7.47;4.55;;;;;;;16.46;83.64;100653.06;8385388;28;20500;-78
2024/04/08 06:19:27;;;;;;;10.68;4.45;;;;;;;16.78;81.40;100660.16;8388355;28;20460;-78
2024/04/08 06:23:28;;;;;;;8.30;4.07;;;;;;;16.69;85.12;100669.59;8396016;28;20098;-77
2024/04/08 06:27:29;;;;;;;11.68;4.20;;;;;;;16.55;85.35;100674.25;8411030;28;20056;-78
2024/04/08 06:31:30;;;;;;;15.35;4.22;;;;;;;16.69;84.26;100675.00;8399439;28;20045;-77
2024/04/08 06:35:30;;;;;;;10.18;4.00;;;;;;;16.67;83.26;100670.88;8374543;28;20133;-78
2024/04/08 06:39:31;;;;;;;11.02;4.40;;;;;;;16.86;81.80;100678.84;8393806;28;20454;-78
2024/04/08 06:43:32;;;;;;;9.73;4.65;;;;;;;17.33;80.27;100679.25;8394800;28;20139;-78
2024/04/08 06:47:32;;;;;;;8.27;4.55;;;;;;;17.51;79.37;100674.94;8393574;28;20397;-78
2024/04/08 06:51:33;;;;;;;14.20;4.72;;;;;;;17.41;80.19;100679.00;8393413;28;20088;-79
2024/04/08 06:55:33;;;;;;;9.10;4.38;;;;;;;17.41;78.86;100684.41;8375531;28;20424;-79
2024/04/08 06:59:35;;;;;;;10.50;4.95;;;;;;;17.72;77.01;100680.78;8381767;28;20055;-78
2024/04/08 07:03:36;;;;;;;12.40;4.63;;;;;;;17.95;76.11;100688.22;8393507;28;20084;-78
2024/04/08 07:07:37;;;;;;;12.48;5.50;;;;;;;18.06;76.57;100683.94;8372839;28;20056;-80
2024/04/08 07:11:38;;;;;;;13.63;5.13;;;;;;;18.36;74.11;100673.94;8403159;28;20049;-77
2024/04/08 07:15:41;;;;;;;8.60;4.15;;;;;;;18.31;74.06;100670.25;8381135;28;20060;-79
2024/04/08 07:19:41;;;;;;;8.77;4.13;;;;;;;18.56;73.77;100667.38;8412553;28;20049;-79
2024/04/08 07:23:42;;;;;;;12.60;4.43;;;;;;;18.51;72.98;100661.84;8382960;28;20056;-80
2024/04/08 07:27:43;;;;;;;14.40;4.55;;;;;;;18.48;72.39;100681.28;8371810;28;20056;-78
2024/04/08 07:31:43;;;;;;;14.65;4.53;;;;;;;18.54;71.85;100680.38;8391946;28;20044;-78
2024/04/08 07:35:44;;;;;;;15.90;6.43;;;;;;;19.10;69.90;100665.56;8395698;28;20083;-79
2024/04/08 07:39:45;;;;;;;17.58;8.38;;;;;;;19.03;69.05;100670.25;8391979;28;20111;-78
2024/04/08 07:43:46;;;;;;;14.45;8.40;;;;;;;19.39;66.96;100652.91;8393875;28;20060;-79
2024/04/08 07:47:47;;;;;;;15.60;5.32;;;;;;;19.48;66.10;100618.91;8390739;28;20087;-78
2024/04/08 07:51:48;;;;;;;9.85;4.47;;;;;;;19.16;65.38;100602.97;8393093;28;20113;-80
2024/04/08 07:55:48;;;;;;;10.77;4.20;;;;;;;19.53;66.23;100583.69;8398720;28;20056;-79
2024/04/08 07:59:51;;;;;;;8.05;3.90;;;;;;;19.68;64.37;100553.31;8394470;28;20532;-80
2024/04/08 08:03:52;;;;;;;12.35;4.22;;;;;;;19.91;64.70;100555.09;8394341;28;20091;-78
2024/04/08 08:07:53;;;;;;;11.48;4.63;;;;;;;19.58;64.24;100568.31;8392795;28;20064;-80
2024/04/08 08:11:53;;;;;;;12.27;5.40;;;;;;;19.19;68.20;100599.78;8407355;28;20037;-79
2024/04/08 08:15:55;;;;;;;16.00;6.40;;;;;;;19.69;64.68;100568.53;8379932;28;20049;-79
2024/04/08 08:19:56;;;;;;;14.20;4.90;;;;;;;20.12;64.19;100587.03;8378477;28;20096;-80
2024/04/08 08:23:57;;;;;;;9.30;5.32;;;;;;;20.02;65.73;100567.84;8394276;28;20079;-80
2024/04/08 08:27:58;;;;;;;10.75;4.68;;;;;;;19.89;64.02;100547.19;8395720;28;20147;-81
2024/04/08 08:31:58;;;;;;;11.60;4.72;;;;;;;20.08;64.20;100516.00;8396509;28;20048;-80
2024/04/08 08:36:00;;;;;;;19.83;5.10;;;;;;;20.32;64.64;100477.81;8380937;28;20108;-79
2024/04/08 08:40:00;;;;;;;17.00;5.32;;;;;;;19.70;65.96;100465.03;8385605;28;20550;-79
2024/04/08 08:44:02;;;;;;;25.95;12.40;;;;;;;19.76;65.51;100504.00;8394956;28;20139;-79
2024/04/08 08:48:03;;;;;;;21.05;6.22;;;;;;;19.67;66.36;100405.72;8394486;28;20059;-79
2024/04/08 08:52:06;;;;;;;14.02;4.30;;;;;;;19.50;66.43;100464.63;8394719;28;20080;-79
2024/04/08 08:56:12;;;;;;;10.23;4.18;;;;;;;19.96;63.06;100468.19;8394792;28;20453;-80
2024/04/08 09:00:15;;;;;;;11.10;4.15;;;;;;;20.51;61.07;100487.38;8384559;28;20044;-79
2024/04/08 09:05:47;;;;;;;11.02;4.43;;;;;;;21.14;60.09;100447.13;9201617;25;20382;-78
2024/04/08 09:09:54;;;;;;;9.68;4.45;;;;;;;21.24;59.82;100448.13;9138307;26;20018;-80
2024/04/08 09:14:06;;;;;;;10.23;4.18;;;;;;;21.00;59.68;100480.22;9141222;26;20013;-78
2024/04/08 09:18:08;;;;;;;9.52;3.72;;;;;;;21.19;59.22;100504.41;9144465;26;19998;-78
2024/04/08 09:22:11;;;;;;;16.33;4.30;;;;;;;21.21;57.79;100481.28;9111369;26;20051;-78
2024/04/08 09:26:13;;;;;;;11.65;3.47;;;;;;;21.36;58.80;100486.97;9139864;25;20007;-78
2024/04/08 09:30:14;;;;;;;9.35;3.40;;;;;;;21.63;57.48;100472.53;9140307;26;20050;-77
2024/04/08 09:34:20;;;;;;;9.73;3.85;;;;;;;21.63;57.32;100458.91;9140736;26;20005;-78
2024/04/08 09:38:23;;;;;;;9.75;3.22;;;;;;;21.90;58.43;100458.91;9139730;26;20001;-80
2024/04/08 09:42:29;;;;;;;15.82;4.03;;;;;;;22.40;56.60;100477.66;9105085;26;20025;-79
2024/04/08 09:46:30;;;;;;;19.48;4.82;;;;;;;22.21;56.90;100503.66;9137884;26;20020;-80
2024/04/08 09:50:33;;;;;;;63.72;7.68;;;;;;;22.40;58.01;100490.47;9156522;25;20054;-79
2024/04/08 09:54:35;;;;;;;12.18;4.15;;;;;;;22.68;55.84;100456.53;9197277;25;20020;-79
2024/04/08 09:58:39;;;;;;;34.67;5.97;;;;;;;22.12;56.78;100451.50;9179236;25;20005;-81
2024/04/08 10:02:43;;;;;;;9.50;4.05;;;;;;;22.69;56.96;100430.88;9106995;26;19998;-79
2024/04/08 10:06:46;;;;;;;13.15;3.65;;;;;;;22.79;57.31;100447.31;9133185;26;20016;-80
2024/04/08 10:10:48;;;;;;;10.75;3.50;;;;;;;23.54;53.26;100435.06;9134741;26;20070;-80
2024/04/08 10:14:49;;;;;;;16.27;3.35;;;;;;;23.38;52.77;100442.41;9121590;26;20003;-80
2024/04/08 10:18:52;;;;;;;8.27;2.90;;;;;;;23.98;50.83;100451.88;9109177;26;20014;-78
2024/04/08 10:22:54;;;;;;;14.68;3.65;;;;;;;25.26;48.06;100447.00;9108419;26;20006;-80
2024/04/08 10:27:07;;;;;;;8.15;3.53;;;;;;;25.14;48.49;100441.84;9075934;26;20051;-80
2024/04/08 10:31:12;;;;;;;12.13;3.17;;;;;;;25.68;45.93;100451.19;9078088;26;20326;-79
2024/04/08 10:35:14;;;;;;;10.48;3.05;;;;;;;25.44;45.09;100459.25;9079299;26;20074;-79
2024/04/08 10:39:17;;;;;;;7.28;2.78;;;;;;;25.32;45.90;100467.78;9075137;26;20002;-80
2024/04/08 10:43:20;;;;;;;11.40;2.90;;;;;;;25.82;45.33;100455.75;9107589;26;20009;-80
2024/04/08 10:47:22;;;;;;;7.18;2.58;;;;;;;25.81;44.43;100434.09;9106066;26;19998;-81
2024/04/08 10:51:24;;;;;;;17.27;3.80;;;;;;;25.26;46.15;100430.56;9105913;26;20006;-80
2024/04/08 10:55:25;;;;;;;8.95;3.50;;;;;;;24.86;46.00;100464.41;9074296;26;20009;-79
2024/04/08 10:59:27;;;;;;;12.20;3.53;;;;;;;24.79;46.63;100428.22;9106248;26;20086;-78
2024/04/08 11:03:29;;;;;;;7.90;2.78;;;;;;;25.34;44.66;100435.47;9108869;26;20012;-81
2024/04/08 11:07:37;;;;;;;6.72;2.80;;;;;;;25.53;45.89;100446.59;9106917;26;20018;-79
2024/04/08 11:11:39;;;;;;;6.57;2.50;;;;;;;25.68;43.94;100443.75;9106132;26;20021;-79
2024/04/08 11:15:47;;;;;;;7.10;2.80;;;;;;;25.12;44.78;100446.78;9107802;26;20002;-80
2024/04/08 11:20:00;;;;;;;8.57;3.83;;;;;;;26.32;43.81;100447.41;9105664;26;20009;-80
2024/04/08 11:24:11;;;;;;;7.53;3.42;;;;;;;25.77;45.43;100464.03;9107060;26;20010;-80
2024/04/08 11:28:13;;;;;;;8.27;3.30;;;;;;;25.27;46.25;100445.91;9104097;26;20301;-80
2024/04/08 11:32:15;;;;;;;9.75;3.33;;;;;;;25.64;44.95;100434.44;9071398;26;19998;-81
2024/04/08 11:36:18;;;;;;;14.65;3.90;;;;;;;26.53;45.69;100445.28;9106482;26;20002;-81
2024/04/08 11:40:20;;;;;;;12.98;3.50;;;;;;;25.87;46.11;100435.69;9108636;26;20048;-80
2024/04/08 11:44:30;;;;;;;11.05;3.97;;;;;;;26.24;44.12;100437.03;9104602;26;20410;-80
2024/04/08 11:48:37;;;;;;;10.88;3.80;;;;;;;26.97;43.21;100429.44;9106946;26;20454;-81
2024/04/08 11:52:39;;;;;;;15.02;4.47;;;;;;;26.68;42.09;100409.44;9074201;26;19998;-80
2024/04/08 11:56:41;;;;;;;8.82;3.78;;;;;;;27.52;39.42;100404.25;9072325;26;20010;-81
2024/04/08 12:00:43;;;;;;;11.43;3.30;;;;;;;27.99;38.55;100410.72;9144362;26;20422;-80
2024/04/08 12:04:46;;;;;;;6.28;3.92;;;;;;;27.88;39.38;100408.09;9134073;26;20005;-82
2024/04/08 12:08:50;;;;;;;11.30;3.45;;;;;;;28.64;37.17;100391.38;9166848;26;20001;-80
2024/04/08 12:12:52;;;;;;;17.08;5.45;;;;;;;28.79;37.01;100385.53;9166611;26;20028;-80
2024/04/08 12:16:54;;;;;;;13.43;3.33;;;;;;;28.66;37.69;100394.66;9166593;26;20016;-80
2024/04/08 12:20:55;;;;;;;6.45;2.65;;;;;;;28.06;36.96;100406.44;9103718;26;20462;-81
2024/04/08 12:24:57;;;;;;;7.70;2.83;;;;;;;28.60;37.33;100391.16;9101470;26;20006;-80
2024/04/08 12:28:59;;;;;;;9.25;2.95;;;;;;;28.66;37.97;100386.38;9104747;26;20023;-79
2024/04/08 12:33:01;;;;;;;9.60;2.80;;;;;;;27.78;38.63;100390.97;9074941;26;20002;-78
2024/04/08 12:37:04;;;;;;;11.02;2.70;;;;;;;27.97;38.16;100385.41;9073308;26;20014;-82
2024/04/08 12:41:05;;;;;;;13.90;2.75;;;;;;;28.97;37.23;100383.81;9072476;26;19998;-80
2024/04/08 12:45:08;;;;;;;23.02;4.00;;;;;;;29.25;35.55;100371.63;9073205;26;20017;-81
2024/04/08 12:49:24;;;;;;;47.05;6.40;;;;;;;28.87;35.14;100373.03;9105813;26;20002;-80
2024/04/08 12:53:25;;;;;;;25.30;3.70;;;;;;;28.49;34.26;100384.22;9074870;26;20006;-80
2024/04/08 12:57:27;;;;;;;34.67;5.35;;;;;;;28.30;36.08;100391.75;9075423;26;20002;-80
2024/04/08 13:01:29;;;;;;;20.42;4.10;;;;;;;28.00;34.37;100384.81;9106909;26;20002;-79
2024/04/08 13:05:32;;;;;;;19.27;3.70;;;;;;;28.00;34.36;100385.63;9106110;26;20038;-78
2024/04/08 13:09:34;;;;;;;13.15;2.58;;;;;;;27.98;34.71;100374.09;9076014;26;20056;-78
2024/04/08 13:13:42;;;;;;;30.60;3.60;;;;;;;28.88;34.40;100375.47;9105172;26;19998;-79
2024/04/08 13:17:48;;;;;;;18.77;3.65;;;;;;;28.81;33.03;100370.34;9074375;26;20003;-80
2024/04/08 13:21:50;;;;;;;9.77;2.70;;;;;;;28.81;33.32;100366.75;9106366;26;20017;-80
2024/04/08 13:25:52;;;;;;;13.90;3.13;;;;;;;29.14;33.80;100361.94;9103121;26;20006;-79
2024/04/08 13:29:54;;;;;;;11.05;3.17;;;;;;;28.79;33.49;100361.53;9104409;26;20002;-79
2024/04/08 13:33:56;;;;;;;9.63;2.80;;;;;;;28.99;33.70;100357.59;9105589;26;20012;-79
2024/04/08 13:37:59;;;;;;;9.40;2.30;;;;;;;29.34;33.89;100355.16;9103336;26;20048;-79
2024/04/08 13:42:01;;;;;;;8.10;2.50;;;;;;;28.39;34.50;100368.69;9072624;26;19998;-80
2024/04/08 13:46:05;;;;;;;12.38;2.90;;;;;;;28.56;33.87;100370.84;9102994;26;20019;-80
2024/04/08 13:50:07;;;;;;;14.82;2.97;;;;;;;28.61;34.47;100358.91;9079110;26;20005;-78
2024/04/08 13:54:08;;;;;;;10.30;2.80;;;;;;;28.02;35.02;100368.81;9108793;26;20018;-78
2024/04/08 13:58:10;;;;;;;18.10;3.22;;;;;;;28.81;35.62;100358.47;9108672;26;20002;-79
2024/04/08 14:02:12;;;;;;;8.20;3.20;;;;;;;28.49;36.83;100356.69;9077564;26;20002;-80
2024/04/08 14:06:14;;;;;;;8.60;3.15;;;;;;;28.47;34.42;100362.50;9107460;26;20030;-79
2024/04/08 14:10:17;;;;;;;21.42;3.30;;;;;;;29.13;33.25;100346.53;9108699;26;20002;-78
2024/04/08 14:14:19;;;;;;;8.88;2.53;;;;;;;27.85;34.69;100361.94;9075957;26;20003;-80
2024/04/08 14:18:20;;;;;;;13.07;3.42;;;;;;;27.73;35.38;100375.31;9109137;26;19998;-79
2024/04/08 14:22:22;;;;;;;12.73;2.35;;;;;;;27.81;36.10;100358.16;9075812;26;20002;-79
2024/04/08 14:26:26;;;;;;;8.98;2.40;;;;;;;27.18;36.85;100363.22;9105292;26;20002;-79
2024/04/08 14:30:31;;;;;;;8.23;2.97;;;;;;;27.65;38.04;100364.19;9106997;26;20036;-79
2024/04/08 14:34:32;;;;;;;10.73;3.33;;;;;;;27.15;37.92;100367.38;9078064;26;20010;-80
2024/04/08 14:38:34;;;;;;;11.35;3.10;;;;;;;27.69;36.16;100346.78;9107252;26;20034;-81
2024/04/08 14:42:56;;;;;;;14.05;3.58;;;;;;;27.74;37.91;100351.38;9108181;26;20030;-80
2024/04/08 14:46:58;;;;;;;27.88;15.20;;;;;;;28.35;36.92;100348.41;9107585;26;20018;-80
2024/04/08 14:50:59;;;;;;;13.55;2.60;;;;;;;27.32;38.07;100347.63;9106370;26;20005;-81
2024/04/08 14:55:01;;;;;;;8.80;2.80;;;;;;;27.32;37.69;100358.63;9107629;26;20006;-81
2024/04/08 14:59:03;;;;;;;20.20;2.97;;;;;;;27.53;37.46;100354.44;9107733;26;20002;-80
2024/04/08 15:03:05;;;;;;;11.55;3.08;;;;;;;27.82;37.11;100350.72;9073640;26;20002;-79
2024/04/08 15:07:07;;;;;;;12.95;3.28;;;;;;;27.30;38.56;100345.16;9104891;26;19998;-80
2024/04/08 15:11:20;;;;;;;12.07;3.53;;;;;;;27.59;37.83;100361.47;9105743;26;20075;-80
2024/04/08 15:15:23;;;;;;;10.88;3.13;;;;;;;27.13;38.63;100353.13;9103495;26;20059;-81
2024/04/08 15:19:25;;;;;;;13.65;3.05;;;;;;;26.73;39.06;100354.44;9086006;26;20022;-80
2024/04/08 15:23:27;;;;;;;14.75;3.05;;;;;;;26.46;39.32;100356.94;9103320;26;20013;-80
2024/04/08 15:27:29;;;;;;;12.48;3.10;;;;;;;26.36;38.93;100352.38;9104569;26;19998;-79
2024/04/08 15:31:31;;;;;;;9.65;2.75;;;;;;;26.21;38.66;100352.50;9105042;26;20058;-80
2024/04/08 15:35:33;;;;;;;20.58;2.78;;;;;;;26.39;37.99;100351.81;9075373;26;20002;-79
2024/04/08 15:39:35;;;;;;;20.65;3.92;;;;;;;26.75;39.08;100343.97;9111209;26;20002;-79
2024/04/08 15:43:37;;;;;;;13.30;3.17;;;;;;;26.74;38.29;100345.09;9104691;26;20002;-81
2024/04/08 15:47:39;;;;;;;12.70;3.55;;;;;;;26.43;38.86;100339.13;9071286;26;20082;-80
2024/04/08 15:51:45;;;;;;;12.82;3.33;;;;;;;26.21;40.11;100350.59;9100136;26;19998;-81
2024/04/08 15:55:47;;;;;;;10.75;3.25;;;;;;;25.85;40.12;100348.16;9098755;26;20365;-81
2024/04/08 15:59:49;;;;;;;16.55;3.40;;;;;;;26.17;40.16;100341.28;9110488;26;20069;-79
2024/04/08 16:03:51;;;;;;;24.67;3.42;;;;;;;26.09;40.47;100341.94;9098112;26;21291;-80
2024/04/08 16:07:54;;;;;;;10.02;2.45;;;;;;;25.67;41.11;100329.63;9101166;26;19999;-79
2024/04/08 16:11:55;;;;;;;10.82;3.10;;;;;;;25.68;41.32;100349.69;9099609;26;20006;-80
2024/04/08 16:15:57;;;;;;;20.98;3.10;;;;;;;25.35;42.07;100354.84;9103817;26;19998;-79
2024/04/08 16:19:59;;;;;;;13.65;3.00;;;;;;;25.58;41.34;100336.03;9102557;26;20010;-81
2024/04/08 16:24:01;;;;;;;17.10;3.88;;;;;;;25.44;40.90;100338.59;9101718;26;20014;-80
2024/04/08 16:28:03;;;;;;;14.45;3.33;;;;;;;25.16;41.91;100343.69;9101921;26;20006;-79
2024/04/08 16:32:04;;;;;;;17.95;3.45;;;;;;;25.30;42.38;100341.16;9102768;26;19998;-80
2024/04/08 16:36:09;;;;;;;17.92;3.83;;;;;;;25.36;41.57;100341.97;9100785;26;20009;-80
2024/04/08 16:40:11;;;;;;;18.10;4.10;;;;;;;24.96;43.44;100338.31;9103630;26;19999;-79
2024/04/08 16:44:13;;;;;;;15.43;4.45;;;;;;;24.97;42.73;100331.72;9074206;26;20009;-79
2024/04/08 16:48:15;;;;;;;20.40;3.70;;;;;;;25.11;42.21;100329.22;9075580;26;20026;-79
2024/04/08 16:52:16;;;;;;;13.18;3.13;;;;;;;25.24;41.73;100329.41;9106349;26;20006;-79
2024/04/08 16:56:18;;;;;;;12.10;3.58;;;;;;;25.22;41.46;100320.66;9065484;26;20010;-81
2024/04/08 17:00:22;;;;;;;20.48;4.32;;;;;;;25.27;41.95;100322.53;9101282;26;20006;-80
2024/04/08 17:04:27;;;;;;;13.68;3.63;;;;;;;25.19;41.58;100314.94;9101611;26;20337;-80
2024/04/08 17:08:30;;;;;;;13.07;3.50;;;;;;;25.18;45.35;100305.06;9100633;26;20002;-79
2024/04/08 17:12:32;;;;;;;23.90;6.00;;;;;;;24.98;44.45;100297.75;9069290;26;20345;-79
2024/04/08 17:16:34;;;;;;;17.58;5.40;;;;;;;24.80;45.73;100287.44;9102393;26;19994;-79
2024/04/08 17:20:36;;;;;;;15.02;4.97;;;;;;;24.93;44.48;100273.94;9104773;26;20006;-79
2024/04/08 17:24:39;;;;;;;67.72;47.50;;;;;;;24.61;42.67;100266.16;9076175;26;20013;-79
2024/04/08 17:28:42;;;;;;;15.50;4.88;;;;;;;24.53;43.33;100274.16;9076929;26;20019;-80
2024/04/08 17:32:47;;;;;;;19.33;5.15;;;;;;;24.13;45.82;100280.56;9106911;26;20002;-79
2024/04/08 17:36:49;;;;;;;16.00;5.80;;;;;;;24.35;47.65;100276.41;9047737;26;20015;-81
2024/04/08 17:41:05;;;;;;;15.77;7.25;;;;;;;23.72;49.97;100292.38;9063903;26;20006;-79
2024/04/08 17:45:07;;;;;;;18.55;5.50;;;;;;;23.86;50.24;100292.66;9107808;26;19998;-81
2024/04/08 17:49:08;;;;;;;20.33;6.88;;;;;;;23.68;51.31;100291.28;9073837;26;20002;-80
2024/04/08 17:53:10;;;;;;;21.83;10.30;;;;;;;23.24;48.89;100301.91;9107367;26;20002;-80
2024/04/08 17:57:13;;;;;;;26.55;7.05;;;;;;;23.36;50.32;100293.44;9105399;26;19998;-80
2024/04/08 18:01:21;;;;;;;22.90;6.57;;;;;;;23.51;51.89;100296.19;9047081;26;19998;-80
2024/04/08 18:05:27;;;;;;;19.13;5.50;;;;;;;23.04;53.54;100299.13;9106741;26;20423;-81
2024/04/08 18:09:31;;;;;;;20.95;5.38;;;;;;;22.91;54.19;100295.03;9106484;26;19998;-79
2024/04/08 18:13:37;;;;;;;17.48;6.07;;;;;;;22.73;53.46;100290.00;9043011;26;19998;-81
2024/04/08 18:17:41;;;;;;;22.92;6.57;;;;;;;22.61;52.38;100295.72;9083291;26;19998;-80
2024/04/08 18:21:43;;;;;;;22.17;6.88;;;;;;;22.54;52.94;100293.19;9109816;26;20002;-79
2024/04/08 18:25:54;;;;;;;19.08;7.57;;;;;;;22.20;55.04;100298.22;9110020;26;19994;-80
2024/04/08 18:29:56;;;;;;;18.13;6.32;;;;;;;22.03;55.57;100283.91;9079675;26;20047;-79
2024/04/08 18:33:58;;;;;;;20.40;5.57;;;;;;;22.03;55.57;100291.25;9107718;26;20047;-80
2024/04/08 18:38:04;;;;;;;24.05;8.00;;;;;;;21.82;56.43;100277.50;9112084;26;20013;-79